Time;durP1;ratioP1;P1;durP2;ratioP2;P2;SDS_P1;SDS_P2;PMS_P1;PMS_P2;Temp;Humidity;BMP_temperature;BMP_pressure;BME280_temperature;BME280_humidity;BME280_pressure;Samples;Min_cycle;Max_cycle;Signal;HPM_P1;HPM_P2
2021/11/23 00:00:45;;;;;;;1.87;1.77;;;6.70;99.90;;;;;;4938754;29;20453;-80
2021/11/23 00:03:34;;;;;;;2.57;2.00;;;6.70;99.90;;;;;;4950073;28;20455;-80
2021/11/23 00:06:22;;;;;;;4.60;1.97;;;6.60;99.90;;;;;;4942678;29;20448;-80
2021/11/23 00:09:12;;;;;;;3.27;2.50;;;6.60;99.90;;;;;;4944112;29;20457;-80
2021/11/23 00:12:01;;;;;;;2.17;1.97;;;6.50;99.90;;;;;;4944470;28;20541;-80
2021/11/23 00:14:51;;;;;;;2.50;2.13;;;6.60;99.90;;;;;;4949160;29;20445;-80
2021/11/23 00:17:39;;;;;;;2.87;1.97;;;6.50;99.90;;;;;;4937304;29;20465;-80
2021/11/23 00:20:28;;;;;;;11.60;6.80;;;6.50;99.90;;;;;;4940103;28;20452;-81
2021/11/23 00:23:17;;;;;;;3.93;2.87;;;6.40;99.90;;;;;;4942005;29;20444;-80
2021/11/23 00:26:07;;;;;;;2.60;2.40;;;6.40;99.90;;;;;;4949423;28;20452;-81
2021/11/23 00:28:55;;;;;;;2.33;2.07;;;6.40;99.90;;;;;;4958913;28;20467;-81
2021/11/23 00:31:44;;;;;;;2.40;2.00;;;6.40;99.90;;;;;;4940586;28;20461;-81
2021/11/23 00:34:32;;;;;;;2.30;2.10;;;6.40;99.90;;;;;;4947694;29;20487;-83
2021/11/23 00:37:21;;;;;;;4.47;2.33;;;6.40;99.90;;;;;;4954488;29;20998;-80
2021/11/23 00:40:11;;;;;;;2.20;2.10;;;6.40;99.90;;;;;;4957009;28;20460;-82
2021/11/23 00:43:04;;;;;;;2.53;2.00;;;6.40;99.90;;;;;;4953040;29;20503;-81
2021/11/23 00:45:53;;;;;;;2.57;2.37;;;6.40;99.90;;;;;;4951759;28;20818;-81
2021/11/23 00:48:41;;;;;;;2.43;2.23;;;6.40;99.90;;;;;;4955055;29;20460;-83
2021/11/23 00:51:30;;;;;;;2.55;2.00;;;6.30;99.90;;;;;;4951481;29;20497;-82
2021/11/23 00:54:18;;;;;;;2.30;2.10;;;6.20;99.90;;;;;;4950292;29;20276;-81
2021/11/23 00:57:07;;;;;;;2.63;2.43;;;6.20;99.90;;;;;;4949649;28;21639;-83
2021/11/23 00:59:57;;;;;;;2.57;2.17;;;6.20;99.90;;;;;;4954380;29;20445;-82
2021/11/23 01:02:45;;;;;;;2.17;1.98;;;6.20;99.90;;;;;;4947827;28;20452;-82
2021/11/23 01:05:34;;;;;;;3.77;2.27;;;6.20;99.90;;;;;;4934748;28;20211;-82
2021/11/23 01:08:23;;;;;;;2.33;2.22;;;6.20;99.90;;;;;;4952443;28;20475;-82
2021/11/23 01:11:15;;;;;;;4.18;3.25;;;6.40;99.90;;;;;;4955742;28;20329;-81
2021/11/23 01:14:07;;;;;;;3.00;2.70;;;6.10;99.90;;;;;;4956718;28;20228;-83
2021/11/23 01:16:57;;;;;;;3.00;2.70;;;6.20;99.90;;;;;;4954006;28;20460;-82
2021/11/23 01:19:46;;;;;;;2.97;2.33;;;6.10;99.90;;;;;;4946914;28;20204;-83
2021/11/23 01:22:34;;;;;;;2.47;2.27;;;6.10;99.90;;;;;;4950566;28;20479;-81
2021/11/23 01:25:23;;;;;;;2.58;2.38;;;6.10;99.90;;;;;;4944665;28;20445;-81
2021/11/23 01:28:11;;;;;;;2.78;2.13;;;6.20;99.90;;;;;;4939629;29;20228;-81
2021/11/23 01:31:02;;;;;;;3.65;3.00;;;6.00;99.90;;;;;;4949260;28;20212;-81
2021/11/23 01:33:52;;;;;;;5.75;2.67;;;6.00;99.90;;;;;;4948686;29;20287;-80
2021/11/23 01:36:40;;;;;;;3.05;2.65;;;6.10;99.90;;;;;;4948691;29;20211;-82
2021/11/23 01:39:29;;;;;;;2.70;2.50;;;6.10;99.90;;;;;;4942170;28;20220;-81
2021/11/23 01:42:18;;;;;;;4.83;2.90;;;6.00;99.90;;;;;;4951626;28;20455;-82
2021/11/23 01:45:07;;;;;;;2.63;2.33;;;6.00;99.90;;;;;;4949684;29;20464;-82
2021/11/23 01:47:56;;;;;;;2.72;2.05;;;6.00;99.90;;;;;;4944643;28;20995;-83
2021/11/23 01:50:46;;;;;;;2.33;1.77;;;6.00;99.90;;;;;;4942072;28;20209;-83
2021/11/23 01:53:35;;;;;;;2.50;2.30;;;6.00;99.90;;;;;;4955293;28;20268;-82
2021/11/23 01:56:24;;;;;;;3.47;2.37;;;5.90;99.90;;;;;;4939333;29;20511;-81
2021/11/23 01:59:12;;;;;;;3.90;2.00;;;5.90;99.90;;;;;;4951836;28;20686;-81
2021/11/23 02:02:01;;;;;;;2.53;2.17;;;5.90;99.90;;;;;;4956237;28;20212;-82
2021/11/23 02:04:50;;;;;;;2.70;2.50;;;5.90;99.90;;;;;;4953212;28;20206;-80
2021/11/23 02:07:41;;;;;;;2.83;2.10;;;5.90;99.90;;;;;;4950042;28;20225;-81
2021/11/23 02:10:29;;;;;;;2.53;2.33;;;5.90;99.90;;;;;;4950469;28;20216;-82
2021/11/23 02:13:19;;;;;;;3.20;3.00;;;5.90;99.90;;;;;;4951659;29;20707;-81
2021/11/23 02:16:07;;;;;;;2.45;2.13;;;5.90;99.90;;;;;;4953064;28;20465;-80
2021/11/23 02:18:56;;;;;;;3.00;2.45;;;5.80;99.90;;;;;;4952021;28;20236;-82
2021/11/23 02:21:46;;;;;;;2.92;2.38;;;5.80;99.90;;;;;;4934911;28;20804;-81
2021/11/23 02:24:35;;;;;;;3.33;2.25;;;5.70;99.90;;;;;;4945546;29;20219;-80
2021/11/23 02:27:23;;;;;;;4.03;3.67;;;5.80;99.90;;;;;;4949469;29;20231;-81
2021/11/23 02:30:12;;;;;;;2.45;2.25;;;5.90;99.90;;;;;;4952414;29;21006;-81
2021/11/23 02:33:01;;;;;;;3.80;2.15;;;5.70;99.90;;;;;;4952447;28;20218;-81
2021/11/23 02:35:52;;;;;;;3.30;3.00;;;5.70;99.90;;;;;;4955989;29;20205;-82
2021/11/23 02:38:42;;;;;;;5.10;2.88;;;5.60;99.90;;;;;;4946054;29;20244;-82
2021/11/23 02:41:31;;;;;;;11.93;5.37;;;5.70;99.90;;;;;;4952575;28;20228;-82
2021/11/23 02:44:19;;;;;;;6.70;3.78;;;5.50;99.90;;;;;;4953248;28;20468;-81
2021/11/23 02:47:08;;;;;;;10.52;4.60;;;5.60;99.90;;;;;;4947564;29;20233;-82
2021/11/23 02:49:56;;;;;;;3.05;2.78;;;5.50;99.90;;;;;;4948055;29;20200;-81
2021/11/23 02:52:47;;;;;;;2.47;2.28;;;5.50;99.90;;;;;;4939962;28;20212;-81
2021/11/23 02:55:37;;;;;;;5.03;3.00;;;5.40;99.90;;;;;;4941509;28;20775;-83
2021/11/23 02:58:26;;;;;;;7.28;3.15;;;5.50;99.90;;;;;;4936759;29;20235;-82
2021/11/23 03:01:17;;;;;;;3.42;3.00;;;5.50;99.90;;;;;;4934019;29;20242;-80
2021/11/23 03:04:06;;;;;;;5.43;2.58;;;5.40;99.90;;;;;;4931617;29;20222;-81
2021/11/23 03:06:54;;;;;;;3.38;2.38;;;5.40;99.90;;;;;;4935090;28;20507;-82
2021/11/23 03:09:43;;;;;;;3.08;2.55;;;5.40;99.90;;;;;;4939032;28;20230;-81
2021/11/23 03:12:33;;;;;;;3.67;3.13;;;5.50;99.90;;;;;;4931235;29;20668;-79
2021/11/23 03:15:22;;;;;;;3.47;2.30;;;5.40;99.90;;;;;;4939109;28;20232;-80
2021/11/23 03:18:10;;;;;;;2.55;2.22;;;5.30;99.90;;;;;;4947766;28;20256;-80
2021/11/23 03:20:59;;;;;;;3.85;2.20;;;5.30;99.90;;;;;;4950420;28;20676;-80
2021/11/23 03:23:48;;;;;;;3.22;2.55;;;5.40;99.90;;;;;;4941691;28;20215;-79
2021/11/23 03:26:37;;;;;;;2.95;2.50;;;5.30;99.90;;;;;;4941199;29;20216;-80
2021/11/23 03:29:27;;;;;;;2.97;2.67;;;5.30;99.90;;;;;;4937392;29;20209;-80
2021/11/23 03:32:15;;;;;;;5.03;3.05;;;5.30;99.90;;;;;;4949357;28;20208;-79
2021/11/23 03:35:05;;;;;;;3.53;2.42;;;5.20;99.90;;;;;;4948557;29;20344;-79
2021/11/23 03:37:55;;;;;;;2.65;2.30;;;5.30;99.90;;;;;;4951295;29;20231;-81
2021/11/23 03:40:44;;;;;;;3.30;2.13;;;5.20;99.90;;;;;;4954227;28;20205;-80
2021/11/23 03:43:33;;;;;;;4.50;2.92;;;5.20;99.90;;;;;;4949672;28;20214;-81
2021/11/23 03:46:23;;;;;;;2.85;2.42;;;5.20;99.90;;;;;;4948063;28;20214;-82
2021/11/23 03:49:11;;;;;;;3.80;3.15;;;5.20;99.90;;;;;;4953707;28;20235;-80
2021/11/23 03:52:00;;;;;;;3.53;2.38;;;5.20;99.90;;;;;;4950154;28;20215;-82
2021/11/23 03:54:49;;;;;;;3.03;2.78;;;5.40;99.90;;;;;;4930855;28;20236;-82
2021/11/23 03:57:38;;;;;;;2.50;2.15;;;5.20;99.90;;;;;;4952832;28;20706;-83
2021/11/23 04:00:27;;;;;;;4.20;2.40;;;5.10;99.90;;;;;;4951717;28;20212;-81
2021/11/23 04:03:17;;;;;;;3.28;2.60;;;5.10;99.90;;;;;;4949071;29;20291;-80
2021/11/23 04:06:06;;;;;;;4.10;3.60;;;5.20;99.90;;;;;;4954172;28;20206;-79
2021/11/23 04:08:55;;;;;;;2.50;1.97;;;5.20;99.90;;;;;;4949434;28;20237;-80
2021/11/23 04:11:43;;;;;;;3.40;2.60;;;5.10;99.90;;;;;;4936102;28;20449;-80
2021/11/23 04:14:32;;;;;;;4.50;3.03;;;5.10;99.90;;;;;;4944451;29;20831;-80
2021/11/23 04:17:21;;;;;;;3.97;2.70;;;5.30;99.90;;;;;;4947076;29;20714;-81
2021/11/23 04:20:12;;;;;;;4.28;3.40;;;5.10;99.90;;;;;;4951969;28;20637;-80
2021/11/23 04:23:01;;;;;;;4.07;3.10;;;5.10;99.90;;;;;;4951200;28;20227;-80
2021/11/23 04:25:49;;;;;;;3.28;2.97;;;5.00;99.90;;;;;;4942542;28;20713;-82
2021/11/23 04:28:38;;;;;;;7.03;3.45;;;5.00;99.90;;;;;;4946157;28;20232;-81
2021/11/23 04:31:27;;;;;;;4.55;3.38;;;5.00;99.90;;;;;;4949750;28;20236;-80
2021/11/23 04:34:15;;;;;;;4.38;3.20;;;5.20;99.90;;;;;;4952644;28;20286;-80
2021/11/23 04:37:06;;;;;;;3.72;3.20;;;5.00;99.90;;;;;;4948003;28;20277;-80
2021/11/23 04:39:54;;;;;;;3.17;2.75;;;4.90;99.90;;;;;;4952816;29;20269;-82
2021/11/23 04:42:43;;;;;;;7.40;4.05;;;4.90;99.90;;;;;;4953636;28;20212;-81
2021/11/23 04:45:33;;;;;;;4.45;3.33;;;4.90;99.90;;;;;;4953263;28;20691;-79
2021/11/23 04:48:21;;;;;;;8.38;3.00;;;5.10;99.90;;;;;;4950266;28;20597;-81
2021/11/23 04:51:10;;;;;;;3.80;2.78;;;4.90;99.90;;;;;;4952200;28;20208;-81
2021/11/23 04:54:00;;;;;;;5.40;3.38;;;5.10;99.90;;;;;;4952357;29;20208;-81
2021/11/23 04:56:49;;;;;;;4.20;2.85;;;4.90;99.90;;;;;;4946622;28;20204;-80
2021/11/23 04:59:37;;;;;;;3.17;2.42;;;4.90;99.90;;;;;;4951539;28;20204;-80
2021/11/23 05:02:26;;;;;;;3.10;2.58;;;4.90;99.90;;;;;;4944408;29;20759;-80
2021/11/23 05:05:15;;;;;;;4.40;3.25;;;4.90;99.90;;;;;;4957115;28;20507;-81
2021/11/23 05:08:05;;;;;;;4.45;2.95;;;4.90;99.90;;;;;;4954631;29;20235;-80
2021/11/23 05:10:55;;;;;;;3.95;2.95;;;4.80;99.90;;;;;;4957563;28;20200;-81
2021/11/23 05:13:44;;;;;;;4.55;2.60;;;4.90;99.90;;;;;;4959992;28;20206;-81
2021/11/23 05:16:33;;;;;;;4.70;3.70;;;4.80;99.90;;;;;;4952212;28;20309;-81
2021/11/23 05:19:21;;;;;;;4.63;3.22;;;4.90;99.90;;;;;;4934968;28;20218;-81
2021/11/23 05:22:10;;;;;;;3.70;3.38;;;4.80;99.90;;;;;;4950078;28;20215;-81
2021/11/23 05:24:59;;;;;;;6.40;3.60;;;4.70;99.90;;;;;;4956104;28;20207;-81
2021/11/23 05:27:49;;;;;;;3.33;3.00;;;5.00;99.90;;;;;;4951856;28;20236;-81
2021/11/23 05:30:37;;;;;;;3.17;2.65;;;4.70;99.90;;;;;;4951414;29;20215;-81
2021/11/23 05:33:26;;;;;;;4.10;3.70;;;4.70;99.90;;;;;;4951474;29;20211;-82
2021/11/23 05:36:14;;;;;;;4.57;3.30;;;4.70;99.90;;;;;;4947740;28;20225;-81
2021/11/23 05:39:04;;;;;;;3.83;2.90;;;4.70;99.90;;;;;;4953197;28;20483;-82
2021/11/23 05:41:53;;;;;;;4.40;3.05;;;4.70;99.90;;;;;;4962427;28;20667;-81
2021/11/23 05:44:44;;;;;;;5.78;3.35;;;4.70;99.90;;;;;;4957806;29;20220;-82
2021/11/23 05:47:32;;;;;;;3.70;3.40;;;4.70;99.90;;;;;;4952983;28;20228;-80
2021/11/23 05:50:21;;;;;;;4.85;3.53;;;4.70;99.90;;;;;;4955573;29;20210;-82
2021/11/23 05:53:09;;;;;;;3.08;2.78;;;4.70;99.90;;;;;;4949515;28;20205;-81
2021/11/23 05:55:58;;;;;;;5.75;4.60;;;4.70;99.90;;;;;;4952878;29;20740;-80
2021/11/23 05:58:47;;;;;;;4.57;2.30;;;4.70;99.90;;;;;;4954449;28;20233;-81
2021/11/23 06:01:36;;;;;;;3.40;3.10;;;4.60;99.90;;;;;;4953343;28;20591;-80
2021/11/23 06:04:25;;;;;;;4.55;3.00;;;4.60;99.90;;;;;;4953518;28;20290;-81
2021/11/23 06:07:14;;;;;;;3.05;2.75;;;4.60;99.90;;;;;;4953559;29;20710;-82
2021/11/23 06:10:02;;;;;;;5.05;3.65;;;4.60;99.90;;;;;;4953636;29;20200;-81
2021/11/23 06:12:51;;;;;;;3.63;3.28;;;4.60;99.90;;;;;;4957755;29;20212;-81
2021/11/23 06:15:44;;;;;;;5.43;3.63;;;4.70;99.90;;;;;;4955816;28;20656;-80
2021/11/23 06:18:34;;;;;;;4.85;3.28;;;4.60;99.90;;;;;;4958268;29;20307;-81
2021/11/23 06:21:23;;;;;;;4.30;3.80;;;4.80;99.90;;;;;;4951465;29;20709;-81
2021/11/23 06:24:12;;;;;;;4.88;3.38;;;4.50;99.90;;;;;;4953221;29;20209;-78
2021/11/23 06:27:00;;;;;;;5.13;3.70;;;4.60;99.90;;;;;;4945991;29;20209;-80
2021/11/23 06:29:49;;;;;;;4.55;3.50;;;4.60;99.90;;;;;;4947729;29;20218;-86
2021/11/23 06:32:37;;;;;;;4.75;2.95;;;4.30;99.90;;;;;;4946712;29;20210;-81
2021/11/23 06:35:27;;;;;;;6.13;3.63;;;4.20;99.90;;;;;;4941615;29;20220;-83
2021/11/23 06:38:16;;;;;;;3.42;2.97;;;4.30;99.90;;;;;;4946154;29;20233;-86
2021/11/23 06:41:07;;;;;;;3.60;3.30;;;4.30;99.90;;;;;;4948609;29;20772;-85
2021/11/23 06:43:56;;;;;;;3.80;3.08;;;4.40;99.90;;;;;;4955591;28;20205;-86
2021/11/23 06:46:44;;;;;;;3.95;3.47;;;4.50;99.90;;;;;;4952830;28;20207;-86
2021/11/23 06:49:33;;;;;;;4.57;3.75;;;4.70;99.90;;;;;;4945497;28;20234;-85
2021/11/23 06:52:24;;;;;;;5.30;4.18;;;4.40;99.90;;;;;;4950599;28;20215;-85
2021/11/23 06:55:13;;;;;;;3.83;3.30;;;4.40;99.90;;;;;;4949278;28;20217;-85
2021/11/23 06:58:03;;;;;;;4.97;4.30;;;4.40;99.90;;;;;;4950398;28;20231;-85
2021/11/23 07:00:51;;;;;;;4.68;3.38;;;4.40;99.90;;;;;;4935260;28;20211;-86
2021/11/23 07:03:40;;;;;;;9.05;4.05;;;4.40;99.90;;;;;;4943465;28;20217;-86
2021/11/23 07:06:28;;;;;;;5.88;4.15;;;4.40;99.90;;;;;;4942023;28;20207;-87
2021/11/23 07:09:18;;;;;;;3.95;3.17;;;4.60;99.90;;;;;;4949039;28;20212;-85
2021/11/23 07:12:09;;;;;;;3.78;3.40;;;4.40;99.90;;;;;;4934977;28;20701;-87
2021/11/23 07:14:58;;;;;;;5.45;4.80;;;4.40;99.90;;;;;;4946898;28;20216;-87
2021/11/23 07:17:47;;;;;;;5.38;3.83;;;4.40;99.90;;;;;;4941769;28;20239;-87
2021/11/23 07:20:35;;;;;;;4.82;3.17;;;4.40;99.90;;;;;;4950165;28;20215;-82
2021/11/23 07:23:24;;;;;;;5.50;5.00;;;4.40;99.90;;;;;;4954080;28;20220;-81
2021/11/23 07:26:14;;;;;;;5.10;3.90;;;4.30;99.90;;;;;;4950512;28;20212;-82
2021/11/23 07:29:04;;;;;;;5.18;3.33;;;4.10;99.90;;;;;;4946985;28;20259;-83
2021/11/23 07:31:53;;;;;;;4.60;3.75;;;4.40;99.90;;;;;;4943833;28;20210;-82
2021/11/23 07:34:42;;;;;;;5.70;4.00;;;4.30;99.90;;;;;;4951278;29;20218;-84
2021/11/23 07:37:33;;;;;;;4.65;4.25;;;4.30;99.90;;;;;;4932879;28;20235;-85
2021/11/23 07:40:22;;;;;;;5.45;3.85;;;4.40;99.90;;;;;;4950330;28;20208;-85
2021/11/23 07:43:12;;;;;;;5.47;4.50;;;4.40;99.90;;;;;;4942963;28;20215;-84
2021/11/23 07:46:01;;;;;;;3.90;3.53;;;4.40;99.90;;;;;;4949679;28;20212;-84
2021/11/23 07:48:50;;;;;;;5.50;4.10;;;4.30;99.90;;;;;;4944481;28;20243;-85
2021/11/23 07:51:38;;;;;;;5.55;4.63;;;4.40;99.90;;;;;;4946203;28;20205;-85
2021/11/23 07:54:27;;;;;;;6.72;4.40;;;4.40;99.90;;;;;;4940390;28;20216;-86
2021/11/23 07:57:16;;;;;;;5.35;4.40;;;4.50;99.90;;;;;;4952544;28;20536;-83
2021/11/23 08:00:08;;;;;;;5.43;4.43;;;4.50;99.90;;;;;;4939033;28;20205;-83
2021/11/23 08:02:56;;;;;;;7.63;4.13;;;4.70;99.90;;;;;;4948071;28;20208;-85
2021/11/23 08:05:45;;;;;;;5.30;4.55;;;4.70;99.90;;;;;;4953625;28;20204;-85
2021/11/23 08:08:34;;;;;;;5.53;4.07;;;4.70;99.90;;;;;;4944605;28;20236;-85
2021/11/23 08:11:23;;;;;;;5.88;3.63;;;4.70;99.90;;;;;;4947849;29;20283;-85
2021/11/23 08:14:12;;;;;;;6.22;5.45;;;4.70;99.90;;;;;;4950675;28;20451;-84
2021/11/23 08:17:02;;;;;;;4.68;4.15;;;4.70;99.90;;;;;;4943055;28;20232;-84
2021/11/23 08:19:51;;;;;;;5.47;4.70;;;4.90;99.90;;;;;;4945699;29;20203;-85
2021/11/23 08:22:40;;;;;;;4.57;4.13;;;5.10;99.90;;;;;;4950896;28;20209;-85
2021/11/23 08:25:29;;;;;;;8.25;5.82;;;5.20;99.90;;;;;;4935705;29;20638;-84
2021/11/23 08:28:18;;;;;;;3.92;3.50;;;5.20;99.90;;;;;;4945136;28;20325;-85
2021/11/23 08:31:08;;;;;;;6.95;4.18;;;5.20;99.90;;;;;;4938205;28;20677;-86
2021/11/23 08:34:03;;;;;;;4.55;4.00;;;5.10;99.90;;;;;;4935349;29;20288;-87
2021/11/23 08:36:52;;;;;;;6.50;4.75;;;5.20;99.90;;;;;;4940044;28;20220;-86
2021/11/23 08:39:41;;;;;;;6.28;4.18;;;5.30;99.90;;;;;;4939859;29;20252;-85
2021/11/23 08:42:33;;;;;;;3.78;3.47;;;5.30;99.90;;;;;;4942911;29;20211;-86
2021/11/23 08:45:22;;;;;;;6.93;4.68;;;5.30;99.90;;;;;;4941001;28;20217;-85
2021/11/23 08:48:10;;;;;;;4.97;3.50;;;5.40;99.90;;;;;;4942860;28;20229;-85
2021/11/23 08:51:01;;;;;;;6.35;4.07;;;5.60;99.90;;;;;;4946340;28;20209;-86
2021/11/23 08:53:49;;;;;;;4.77;4.20;;;5.50;99.90;;;;;;4931300;28;20209;-86
2021/11/23 08:56:40;;;;;;;5.23;3.03;;;5.50;99.90;;;;;;4940480;28;20504;-86
2021/11/23 08:59:30;;;;;;;5.15;4.45;;;5.40;99.90;;;;;;4946675;28;20460;-87
2021/11/23 09:02:19;;;;;;;4.65;4.03;;;5.60;99.90;;;;;;4948252;28;20237;-86
2021/11/23 09:05:11;;;;;;;3.70;3.30;;;5.70;99.90;;;;;;4952819;28;20205;-87
2021/11/23 09:08:02;;;;;;;3.87;3.37;;;5.70;99.90;;;;;;4949082;28;20227;-86
2021/11/23 09:10:51;;;;;;;5.27;3.87;;;5.70;99.90;;;;;;4953516;28;20471;-86
2021/11/23 09:13:39;;;;;;;4.80;4.30;;;5.70;99.90;;;;;;4948489;28;20454;-86
2021/11/23 09:16:29;;;;;;;4.97;3.87;;;5.80;99.90;;;;;;4935273;28;20225;-86
2021/11/23 09:19:20;;;;;;;5.38;4.88;;;5.90;99.90;;;;;;4944022;28;20478;-86
2021/11/23 09:22:09;;;;;;;5.35;4.35;;;5.90;99.90;;;;;;4940321;28;20699;-87
2021/11/23 09:25:00;;;;;;;3.97;3.27;;;6.00;99.90;;;;;;4938951;28;20233;-87
2021/11/23 09:27:48;;;;;;;4.93;3.37;;;6.20;99.90;;;;;;4947831;28;20866;-86
2021/11/23 09:30:39;;;;;;;4.60;3.00;;;6.20;99.90;;;;;;4927289;29;20810;-87
2021/11/23 09:33:27;;;;;;;3.85;2.85;;;6.40;99.90;;;;;;4929788;28;20455;-87
2021/11/23 09:36:16;;;;;;;3.83;3.43;;;6.50;99.90;;;;;;4945165;28;20212;-86
2021/11/23 09:39:06;;;;;;;5.07;3.87;;;6.40;99.90;;;;;;4945936;28;20479;-87
2021/11/23 09:41:56;;;;;;;5.00;3.43;;;6.60;99.90;;;;;;4949328;28;20904;-85
2021/11/23 09:44:45;;;;;;;3.60;2.87;;;6.80;99.90;;;;;;4946690;28;20453;-86
2021/11/23 09:47:34;;;;;;;4.07;3.73;;;7.20;99.90;;;;;;4932670;29;20476;-86
2021/11/23 09:50:22;;;;;;;4.00;3.60;;;7.40;99.90;;;;;;4948107;28;20458;-87
2021/11/23 09:53:17;;;;;;;3.63;3.10;;;7.60;99.90;;;;;;4949066;28;20824;-85
2021/11/23 09:56:05;;;;;;;4.13;3.30;;;7.80;99.90;;;;;;4948145;28;20534;-84
2021/11/23 09:58:56;;;;;;;4.60;3.67;;;8.00;99.90;;;;;;4947452;28;20480;-87
2021/11/23 10:01:51;;;;;;;2.87;2.57;;;8.30;99.90;;;;;;4952353;28;20451;-83
2021/11/23 10:04:57;;;;;;;3.93;3.53;;;8.50;99.90;;;;;;4947722;28;20445;-83
2021/11/23 10:07:47;;;;;;;3.30;2.63;;;8.80;99.90;;;;;;4956701;28;20456;-82
2021/11/23 10:10:41;;;;;;;3.67;3.03;;;9.00;99.90;;;;;;4951354;29;20433;-83
2021/11/23 10:13:46;;;;;;;2.90;2.60;;;9.10;99.90;;;;;;4950122;29;20450;-83
2021/11/23 10:16:42;;;;;;;4.00;3.00;;;9.50;99.90;;;;;;4955076;28;20221;-83
2021/11/23 10:19:37;;;;;;;3.60;3.20;;;9.60;99.90;;;;;;4949936;28;20452;-83
2021/11/23 10:22:31;;;;;;;3.30;2.80;;;9.70;99.90;;;;;;4948811;28;21028;-83
2021/11/23 10:25:20;;;;;;;3.10;2.83;;;9.70;99.90;;;;;;4949216;29;20440;-83
2021/11/23 10:28:09;;;;;;;2.87;2.63;;;9.60;99.90;;;;;;4953568;29;20549;-82
2021/11/23 10:31:00;;;;;;;3.70;3.40;;;9.70;99.90;;;;;;4953360;29;20833;-81
2021/11/23 10:33:56;;;;;;;3.40;3.10;;;10.00;99.90;;;;;;4949026;28;20433;-81
2021/11/23 10:36:48;;;;;;;3.40;3.10;;;10.10;99.90;;;;;;4941660;28;20432;-81
2021/11/23 10:39:37;;;;;;;3.33;3.03;;;10.10;99.90;;;;;;4948040;28;20473;-84
2021/11/23 10:42:33;;;;;;;3.30;2.60;;;10.10;99.90;;;;;;4953293;28;20452;-86
2021/11/23 10:45:23;;;;;;;2.50;2.30;;;10.10;99.90;;;;;;4946736;28;20446;-83
2021/11/23 10:48:14;;;;;;;2.60;2.13;;;10.20;99.90;;;;;;4942368;28;20718;-84
2021/11/23 10:51:07;;;;;;;3.53;2.80;;;10.30;99.90;;;;;;4949096;28;20844;-85
2021/11/23 10:54:13;;;;;;;3.10;2.80;;;10.50;99.90;;;;;;4950025;28;20457;-85
2021/11/23 10:57:06;;;;;;;2.60;2.40;;;10.50;99.90;;;;;;4949577;28;20472;-83
2021/11/23 10:59:54;;;;;;;3.50;2.63;;;10.50;99.90;;;;;;4934501;28;20450;-85
2021/11/23 11:02:44;;;;;;;2.60;2.20;;;10.70;99.90;;;;;;4937724;28;20978;-84
2021/11/23 11:05:35;;;;;;;2.70;2.10;;;10.90;99.90;;;;;;4925296;29;20467;-84
2021/11/23 11:08:27;;;;;;;2.77;2.57;;;11.10;99.90;;;;;;4941987;29;20841;-86
2021/11/23 11:11:17;;;;;;;2.20;2.00;;;11.20;99.90;;;;;;4945148;29;20463;-85
2021/11/23 11:14:06;;;;;;;2.90;2.57;;;11.30;99.90;;;;;;4944711;29;21070;-85
2021/11/23 11:16:56;;;;;;;2.40;2.20;;;11.20;99.90;;;;;;4941094;29;20455;-86
2021/11/23 11:19:46;;;;;;;2.70;2.47;;;11.10;99.90;;;;;;4950119;28;20473;-85
2021/11/23 11:22:35;;;;;;;2.93;1.70;;;11.00;99.90;;;;;;4937393;29;20528;-85
2021/11/23 11:25:51;;;;;;;2.23;1.97;;;10.90;99.90;;;;;;4937698;28;20968;-84
2021/11/23 11:28:44;;;;;;;2.72;2.38;;;10.70;99.90;;;;;;4943941;28;20437;-87
2021/11/23 11:31:40;;;;;;;2.03;1.53;;;10.90;99.90;;;;;;4933954;29;20206;-84
2021/11/23 11:34:30;;;;;;;2.47;2.27;;;10.80;99.90;;;;;;4943167;28;20458;-85
2021/11/23 11:37:19;;;;;;;3.50;1.90;;;10.80;99.90;;;;;;4944870;28;20554;-84
2021/11/23 11:40:21;;;;;;;2.23;2.03;;;10.70;99.90;;;;;;4959022;28;20458;-84
2021/11/23 11:43:12;;;;;;;2.47;2.27;;;10.70;99.90;;;;;;4957815;28;20882;-85
2021/11/23 11:46:02;;;;;;;2.60;2.00;;;10.60;99.60;;;;;;4951895;28;20451;-85
2021/11/23 11:48:50;;;;;;;2.90;2.23;;;10.50;97.80;;;;;;4946145;28;20468;-84
2021/11/23 11:51:42;;;;;;;2.90;1.80;;;10.50;99.90;;;;;;4943893;28;20452;-84
2021/11/23 11:54:30;;;;;;;2.13;1.90;;;10.60;99.90;;;;;;4953951;29;20895;-84
2021/11/23 11:57:29;;;;;;;2.10;1.90;;;10.60;97.50;;;;;;4941685;28;20856;-83
2021/11/23 12:00:33;;;;;;;2.57;1.70;;;10.60;99.90;;;;;;4948595;28;20472;-85
2021/11/23 12:03:36;;;;;;;1.87;1.73;;;10.70;99.90;;;;;;4940367;28;20443;-85
2021/11/23 12:06:45;;;;;;;2.27;2.07;;;10.70;99.90;;;;;;4950541;28;21043;-83
2021/11/23 12:09:37;;;;;;;2.57;2.13;;;10.60;99.80;;;;;;4949673;28;20467;-80
2021/11/23 12:12:50;;;;;;;1.60;1.50;;;10.70;99.90;;;;;;4933649;28;20463;-79
2021/11/23 12:16:00;;;;;;;2.17;1.63;;;10.80;99.90;;;;;;4948248;28;20474;-79
2021/11/23 12:19:04;;;;;;;2.30;1.87;;;11.00;99.90;;;;;;4923342;29;20506;-79
2021/11/23 12:21:55;;;;;;;2.57;2.20;;;11.00;99.90;;;;;;4940850;29;20448;-79
2021/11/23 12:24:44;;;;;;;2.10;1.90;;;10.80;97.00;;;;;;4948341;28;20890;-78
2021/11/23 12:27:35;;;;;;;3.03;2.33;;;10.40;99.00;;;;;;4949497;28;20477;-79
2021/11/23 12:30:23;;;;;;;2.60;2.40;;;10.90;99.90;;;;;;4947065;28;20449;-79
2021/11/23 12:33:13;;;;;;;2.73;2.53;;;11.00;99.90;;;;;;4951616;28;20479;-79
2021/11/23 12:36:03;;;;;;;2.53;2.33;;;11.10;99.90;;;;;;4952632;28;20447;-77
2021/11/23 12:38:53;;;;;;;2.67;2.43;;;11.10;99.90;;;;;;4952737;28;20488;-79
2021/11/23 12:41:43;;;;;;;3.77;2.67;;;11.20;99.90;;;;;;4955802;28;20990;-79
2021/11/23 12:44:34;;;;;;;2.47;2.23;;;11.20;99.90;;;;;;4960985;28;20444;-79
2021/11/23 12:47:22;;;;;;;3.00;2.53;;;11.20;99.90;;;;;;4948762;28;20447;-79
2021/11/23 12:50:13;;;;;;;4.67;3.27;;;11.20;99.90;;;;;;4950300;28;20444;-79
2021/11/23 12:53:02;;;;;;;3.70;3.40;;;11.20;99.90;;;;;;4955637;28;20458;-77
2021/11/23 12:55:52;;;;;;;3.00;2.50;;;11.20;96.70;;;;;;4952118;28;20814;-80
2021/11/23 12:58:40;;;;;;;2.33;2.13;;;11.20;97.80;;;;;;4951068;28;20853;-79
2021/11/23 13:01:30;;;;;;;2.27;2.03;;;11.20;98.80;;;;;;4952504;28;20433;-78
2021/11/23 13:04:19;;;;;;;2.87;1.90;;;11.20;98.30;;;;;;4941383;28;20452;-81
2021/11/23 13:07:11;;;;;;;2.40;2.20;;;11.10;96.90;;;;;;4946691;28;20520;-79
2021/11/23 13:10:02;;;;;;;4.80;3.27;;;11.10;97.00;;;;;;4949597;28;20432;-79
2021/11/23 13:12:55;;;;;;;2.17;2.00;;;11.10;96.90;;;;;;4950624;28;20457;-84
2021/11/23 13:15:46;;;;;;;3.40;2.57;;;11.10;96.20;;;;;;4947369;28;20440;-85
2021/11/23 13:18:35;;;;;;;3.20;2.47;;;11.00;94.10;;;;;;4946877;29;21015;-84
2021/11/23 13:21:25;;;;;;;3.00;2.03;;;10.90;94.10;;;;;;4947128;28;20945;-78
2021/11/23 13:24:15;;;;;;;2.73;2.30;;;10.90;95.30;;;;;;4951894;29;20440;-77
2021/11/23 13:27:07;;;;;;;1.90;1.80;;;11.10;95.40;;;;;;4950048;28;20460;-78
2021/11/23 13:29:56;;;;;;;2.50;1.70;;;11.10;95.60;;;;;;4951400;28;20460;-81
2021/11/23 13:32:45;;;;;;;1.67;1.40;;;11.10;93.50;;;;;;4951896;28;20502;-79
2021/11/23 13:35:34;;;;;;;6.10;3.80;;;11.10;93.30;;;;;;4946067;28;20443;-86
2021/11/23 13:38:30;;;;;;;5.60;1.80;;;11.10;91.40;;;;;;4946992;28;20456;-87
2021/11/23 13:41:24;;;;;;;1.70;1.37;;;11.00;88.40;;;;;;4953361;28;20459;-86
2021/11/23 13:44:15;;;;;;;1.60;1.30;;;10.90;85.30;;;;;;4950871;29;20438;-83
2021/11/23 13:47:05;;;;;;;1.93;1.43;;;10.90;84.60;;;;;;4949013;28;20448;-84
2021/11/23 13:50:06;;;;;;;2.37;2.17;;;10.90;84.50;;;;;;4953158;28;20823;-87
2021/11/23 13:53:00;;;;;;;1.40;1.30;;;10.90;84.60;;;;;;4956784;28;20456;-83
2021/11/23 13:55:51;;;;;;;1.60;1.50;;;11.00;85.70;;;;;;4943059;28;20457;-84
2021/11/23 13:58:52;;;;;;;2.60;2.40;;;10.90;80.30;;;;;;4949247;28;20480;-84
2021/11/23 14:01:57;;;;;;;1.80;1.70;;;10.90;82.90;;;;;;4950457;28;20448;-85
2021/11/23 14:04:47;;;;;;;1.53;1.30;;;10.90;86.90;;;;;;4951955;28;20452;-86
2021/11/23 14:07:49;;;;;;;1.47;1.37;;;11.00;83.50;;;;;;4948568;28;20483;-86
2021/11/23 14:10:39;;;;;;;1.40;1.30;;;10.90;76.70;;;;;;4942138;28;20474;-85
2021/11/23 14:13:30;;;;;;;1.50;1.27;;;10.90;81.60;;;;;;4945548;28;20446;-85
2021/11/23 14:16:20;;;;;;;2.03;1.70;;;10.90;78.80;;;;;;4951879;28;20447;-87
2021/11/23 14:19:09;;;;;;;3.43;1.63;;;10.90;80.50;;;;;;4935308;29;20472;-85
2021/11/23 14:21:58;;;;;;;2.17;1.37;;;10.90;75.70;;;;;;4933121;28;21039;-86
2021/11/23 14:24:47;;;;;;;8.20;4.20;;;10.80;74.90;;;;;;4943683;28;20886;-85
2021/11/23 14:27:47;;;;;;;3.00;2.17;;;10.80;77.80;;;;;;4953572;28;20471;-83
2021/11/23 14:30:37;;;;;;;2.97;1.93;;;10.80;72.50;;;;;;4951422;28;20436;-83
2021/11/23 14:33:28;;;;;;;4.07;2.50;;;10.70;72.10;;;;;;4946047;29;20451;-84
2021/11/23 14:36:28;;;;;;;3.27;2.10;;;10.80;74.40;;;;;;4954022;28;20455;-84
2021/11/23 14:39:19;;;;;;;2.70;1.60;;;10.60;71.50;;;;;;4950659;28;20486;-85
2021/11/23 14:42:08;;;;;;;4.37;2.23;;;10.50;69.60;;;;;;4954503;28;20475;-83
2021/11/23 14:44:56;;;;;;;2.47;2.27;;;10.40;68.10;;;;;;4956796;28;20462;-83
2021/11/23 14:47:45;;;;;;;2.57;1.67;;;10.40;70.80;;;;;;4945644;28;20471;-84
2021/11/23 14:50:35;;;;;;;2.43;2.13;;;10.40;72.50;;;;;;4945447;28;20444;-84
2021/11/23 14:53:24;;;;;;;2.30;2.10;;;10.40;70.30;;;;;;4946498;29;20805;-84